Time,TemperatureF,DewpointF,PressureIn,WindDirection,WindDirectionDegrees,WindSpeedMPH,WindSpeedGustMPH,Humidity,HourlyPrecipIn,Conditions,Clouds,dailyrainin,SoftwareType,DateUTC
2013-11-21 00:02:00,44.8,41.2,29.70,South,180,0.0,0.0,87,0.00,,,0.00,WUHU216HW,2013-11-21 07:02:00,
2013-11-21 00:07:00,44.8,41.2,29.70,South,180,0.0,0.0,87,0.00,,,0.00,WUHU216HW,2013-11-21 07:07:00,
2013-11-21 00:12:00,44.8,40.9,29.70,SW,225,0.0,0.0,86,0.00,,,0.00,WUHU216HW,2013-11-21 07:12:00,
2013-11-21 00:17:00,44.8,41.2,29.70,NW,315,0.0,0.0,87,0.00,,,0.00,WUHU216HW,2013-11-21 07:17:00,
2013-11-21 00:22:00,44.8,41.2,29.70,NW,315,0.0,0.0,87,0.00,,,0.00,WUHU216HW,2013-11-21 07:22:00,
2013-11-21 00:27:00,44.8,41.2,29.70,WNW,293,0.0,0.0,87,0.00,,,0.00,WUHU216HW,2013-11-21 07:27:00,
2013-11-21 00:32:00,44.8,41.2,29.70,WNW,293,0.0,0.0,87,0.00,,,0.00,WUHU216HW,2013-11-21 07:32:00,
2013-11-21 00:37:00,44.8,41.2,29.69,SSE,158,0.0,1.0,87,0.00,,,0.00,WUHU216HW,2013-11-21 07:37:00,
2013-11-21 00:42:00,44.8,41.2,29.69,South,180,0.0,1.0,87,0.00,,,0.00,WUHU216HW,2013-11-21 07:42:00,
2013-11-21 00:47:00,44.8,41.2,29.69,SW,225,0.0,0.0,87,0.00,,,0.00,WUHU216HW,2013-11-21 07:47:00,
2013-11-21 00:52:00,44.8,41.2,29.69,SSE,158,0.0,0.0,87,0.00,,,0.00,WUHU216HW,2013-11-21 07:52:00,
2013-11-21 00:57:00,44.8,41.2,29.69,ENE,68,0.0,0.0,87,0.00,,,0.00,WUHU216HW,2013-11-21 07:57:00,
2013-11-21 01:02:00,44.6,41.1,29.69,North,0,0.0,0.0,87,0.00,,,0.00,WUHU216HW,2013-11-21 08:02:00,
2013-11-21 01:07:00,44.6,41.1,29.70,West,270,0.0,1.0,87,0.00,,,0.00,WUHU216HW,2013-11-21 08:07:00,
2013-11-21 01:17:00,44.6,41.1,29.70,WSW,248,1.0,1.0,87,0.00,,,0.00,WUHU216HW,2013-11-21 08:17:00,
2013-11-21 01:22:00,44.5,40.9,29.70,WNW,293,1.0,1.0,87,0.00,,,0.00,WUHU216HW,2013-11-21 08:22:00,
2013-11-21 01:23:00,44.5,40.9,29.70,NW,315,2.0,2.0,87,0.00,,,0.00,WUHU216HW,2013-11-21 08:23:00,
2013-11-21 01:25:00,44.5,40.9,29.70,NW,315,2.0,2.0,87,0.00,,,0.00,WUHU216HW,2013-11-21 08:25:00,
2013-11-21 01:26:00,44.5,40.9,29.70,NW,315,1.0,2.0,87,0.00,,,0.00,WUHU216HW,2013-11-21 08:26:00,
2013-11-21 01:28:00,44.3,40.7,29.70,NNW,338,0.0,2.0,87,0.00,,,0.00,WUHU216HW,2013-11-21 08:28:00,
2013-11-21 01:29:00,44.3,40.7,29.70,WNW,293,0.0,2.0,87,0.00,,,0.00,WUHU216HW,2013-11-21 08:29:00,
2013-11-21 01:31:00,44.3,40.7,29.70,NNW,338,0.0,2.0,87,0.00,,,0.00,WUHU216HW,2013-11-21 08:31:00,
2013-11-21 01:32:00,44.3,40.7,29.71,NW,315,0.0,2.0,87,0.00,,,0.00,WUHU216HW,2013-11-21 08:32:00,
2013-11-21 01:34:00,44.3,40.7,29.70,NW,315,0.0,2.0,87,0.00,,,0.00,WUHU216HW,2013-11-21 08:34:00,
2013-11-21 01:35:00,44.3,40.7,29.70,NW,315,0.0,2.0,87,0.00,,,0.00,WUHU216HW,2013-11-21 08:35:00,
2013-11-21 01:37:00,44.3,40.7,29.70,NNW,338,1.0,1.0,87,0.00,,,0.00,WUHU216HW,2013-11-21 08:37:00,
2013-11-21 01:38:00,44.1,40.5,29.70,NW,315,0.0,1.0,87,0.00,,,0.00,WUHU216HW,2013-11-21 08:38:00,
2013-11-21 01:40:00,44.1,40.5,29.71,NW,315,0.0,1.0,87,0.00,,,0.00,WUHU216HW,2013-11-21 08:40:00,
2013-11-21 01:41:00,44.1,40.5,29.70,North,0,0.0,1.0,87,0.00,,,0.00,WUHU216HW,2013-11-21 08:41:00,
2013-11-21 01:43:00,43.9,40.3,29.70,North,0,0.0,1.0,87,0.00,,,0.00,WUHU216HW,2013-11-21 08:43:00,
2013-11-21 01:44:00,43.9,40.3,29.70,North,0,0.0,1.0,87,0.00,,,0.00,WUHU216HW,2013-11-21 08:44:00,
2013-11-21 01:45:00,43.9,40.3,29.71,North,0,0.0,1.0,87,0.00,,,0.00,WUHU216HW,2013-11-21 08:45:00,
2013-11-21 01:47:00,43.7,40.2,29.71,WSW,248,0.0,0.0,87,0.00,,,0.00,WUHU216HW,2013-11-21 08:47:00,
2013-11-21 01:49:00,43.6,40.0,29.71,WSW,248,0.0,0.0,87,0.00,,,0.00,WUHU216HW,2013-11-21 08:49:00,
2013-11-21 01:50:00,43.6,40.0,29.71,WSW,248,0.0,0.0,87,0.00,,,0.00,WUHU216HW,2013-11-21 08:50:00,
2013-11-21 01:51:00,43.4,39.8,29.71,WSW,248,0.0,0.0,87,0.00,,,0.00,WUHU216HW,2013-11-21 08:51:00,
2013-11-21 01:53:00,43.4,39.8,29.71,WSW,248,0.0,0.0,87,0.00,,,0.00,WUHU216HW,2013-11-21 08:53:00,
2013-11-21 01:55:00,43.2,39.6,29.71,WSW,248,0.0,0.0,87,0.00,,,0.00,WUHU216HW,2013-11-21 08:55:00,
2013-11-21 01:56:00,43.2,39.2,29.71,SE,135,0.0,0.0,86,0.00,,,0.00,WUHU216HW,2013-11-21 08:56:00,
2013-11-21 01:57:00,43.2,39.2,29.71,East,90,0.0,0.0,86,0.00,,,0.00,WUHU216HW,2013-11-21 08:57:00,
2013-11-21 01:59:00,43.0,39.1,29.71,East,90,0.0,0.0,86,0.00,,,0.00,WUHU216HW,2013-11-21 08:59:00,
2013-11-21 02:00:00,43.0,39.1,29.71,East,90,0.0,0.0,86,0.00,,,0.00,WUHU216HW,2013-11-21 09:00:00,
2013-11-21 02:02:00,43.0,39.1,29.71,East,90,0.0,0.0,86,0.00,,,0.00,WUHU216HW,2013-11-21 09:02:00,
2013-11-21 02:03:00,43.0,39.1,29.71,East,90,0.0,0.0,86,0.00,,,0.00,WUHU216HW,2013-11-21 09:03:00,
2013-11-21 02:05:00,42.8,38.9,29.71,East,90,0.0,0.0,86,0.00,,,0.00,WUHU216HW,2013-11-21 09:05:00,
2013-11-21 02:06:00,42.8,38.9,29.71,East,90,0.0,0.0,86,0.00,,,0.00,WUHU216HW,2013-11-21 09:06:00,
2013-11-21 02:08:00,42.8,38.9,29.71,East,90,0.0,0.0,86,0.00,,,0.00,WUHU216HW,2013-11-21 09:08:00,
2013-11-21 02:09:00,42.8,38.9,29.71,East,90,0.0,0.0,86,0.00,,,0.00,WUHU216HW,2013-11-21 09:09:00,
2013-11-21 02:11:00,42.8,38.9,29.71,ENE,68,0.0,0.0,86,0.00,,,0.00,WUHU216HW,2013-11-21 09:11:00,
2013-11-21 02:12:00,42.8,38.9,29.71,ENE,68,0.0,0.0,86,0.00,,,0.00,WUHU216HW,2013-11-21 09:12:00,
2013-11-21 02:14:00,42.8,38.9,29.71,NE,45,0.0,0.0,86,0.00,,,0.00,WUHU216HW,2013-11-21 09:14:00,
2013-11-21 02:15:00,42.8,38.9,29.71,NE,45,0.0,0.0,86,0.00,,,0.00,WUHU216HW,2013-11-21 09:15:00,
2013-11-21 02:17:00,42.8,38.9,29.71,NE,45,0.0,0.0,86,0.00,,,0.00,WUHU216HW,2013-11-21 09:17:00,
2013-11-21 02:18:00,42.8,39.3,29.71,NE,45,0.0,0.0,87,0.00,,,0.00,WUHU216HW,2013-11-21 09:18:00,
2013-11-21 02:20:00,42.8,39.3,29.71,NE,45,0.0,0.0,87,0.00,,,0.00,WUHU216HW,2013-11-21 09:20:00,
2013-11-21 02:21:00,42.8,39.3,29.71,NE,45,0.0,0.0,87,0.00,,,0.00,WUHU216HW,2013-11-21 09:21:00,
2013-11-21 02:23:00,42.8,39.3,29.71,ENE,68,0.0,0.0,87,0.00,,,0.00,WUHU216HW,2013-11-21 09:23:00,
2013-11-21 02:24:00,42.8,39.3,29.71,ENE,68,0.0,0.0,87,0.00,,,0.00,WUHU216HW,2013-11-21 09:24:00,
2013-11-21 02:26:00,42.8,39.3,29.71,SE,135,0.0,0.0,87,0.00,,,0.00,WUHU216HW,2013-11-21 09:26:00,
2013-11-21 02:27:00,42.8,39.3,29.71,SSE,158,0.0,0.0,87,0.00,,,0.00,WUHU216HW,2013-11-21 09:27:00,
2013-11-21 02:29:00,42.8,39.3,29.71,SSE,158,0.0,0.0,87,0.00,,,0.00,WUHU216HW,2013-11-21 09:29:00,
2013-11-21 02:30:00,42.8,39.3,29.71,ESE,113,0.0,0.0,87,0.00,,,0.00,WUHU216HW,2013-11-21 09:30:00,
2013-11-21 02:32:00,42.8,39.3,29.71,East,90,0.0,1.0,87,0.00,,,0.00,WUHU216HW,2013-11-21 09:32:00,
2013-11-21 02:33:00,42.7,39.1,29.71,East,90,0.0,1.0,87,0.00,,,0.00,WUHU216HW,2013-11-21 09:33:00,
2013-11-21 02:35:00,42.8,39.3,29.71,East,90,0.0,1.0,87,0.00,,,0.00,WUHU216HW,2013-11-21 09:35:00,
2013-11-21 02:36:00,42.7,39.1,29.71,ESE,113,0.0,1.0,87,0.00,,,0.00,WUHU216HW,2013-11-21 09:36:00,
2013-11-21 02:38:00,42.7,39.1,29.71,ESE,113,0.0,1.0,87,0.00,,,0.00,WUHU216HW,2013-11-21 09:38:00,
2013-11-21 02:39:00,42.7,39.1,29.71,East,90,0.0,1.0,87,0.00,,,0.00,WUHU216HW,2013-11-21 09:39:00,
2013-11-21 02:41:00,42.7,39.1,29.71,East,90,1.0,1.0,87,0.00,,,0.00,WUHU216HW,2013-11-21 09:41:00,
2013-11-21 02:42:00,42.7,39.1,29.71,ENE,68,1.0,1.0,87,0.00,,,0.00,WUHU216HW,2013-11-21 09:42:00,
2013-11-21 02:44:00,42.7,39.1,29.70,ENE,68,1.0,1.0,87,0.00,,,0.00,WUHU216HW,2013-11-21 09:44:00,
2013-11-21 02:45:00,42.7,39.1,29.70,East,90,1.0,1.0,87,0.00,,,0.00,WUHU216HW,2013-11-21 09:45:00,
2013-11-21 02:47:00,42.7,39.1,29.70,ESE,113,1.0,2.0,87,0.00,,,0.00,WUHU216HW,2013-11-21 09:47:00,
2013-11-21 02:48:00,42.7,39.3,29.70,ESE,113,2.0,2.0,88,0.00,,,0.00,WUHU216HW,2013-11-21 09:48:00,
2013-11-21 02:50:00,42.7,39.3,29.70,ESE,113,1.0,2.0,88,0.00,,,0.00,WUHU216HW,2013-11-21 09:50:00,
2013-11-21 02:51:00,42.7,39.3,29.71,SE,135,0.0,2.0,88,0.00,,,0.00,WUHU216HW,2013-11-21 09:51:00,
2013-11-21 02:53:00,42.7,39.1,29.70,East,90,0.0,2.0,87,0.00,,,0.00,WUHU216HW,2013-11-21 09:53:00,
2013-11-21 02:54:00,42.7,39.1,29.70,East,90,2.0,2.0,87,0.00,,,0.00,WUHU216HW,2013-11-21 09:54:00,
2013-11-21 02:56:00,42.7,39.1,29.70,ESE,113,2.0,2.0,87,0.00,,,0.00,WUHU216HW,2013-11-21 09:56:00,
2013-11-21 02:57:00,42.7,39.1,29.71,ESE,113,1.0,2.0,87,0.00,,,0.00,WUHU216HW,2013-11-21 09:57:00,
2013-11-21 02:59:00,42.8,39.3,29.71,ESE,113,0.0,2.0,87,0.00,,,0.00,WUHU216HW,2013-11-21 09:59:00,
2013-11-21 03:00:00,42.8,39.3,29.71,ESE,113,0.0,2.0,87,0.00,,,0.00,WUHU216HW,2013-11-21 10:00:00,
2013-11-21 03:02:00,42.8,39.3,29.71,ESE,113,0.0,2.0,87,0.00,,,0.00,WUHU216HW,2013-11-21 10:02:00,
2013-11-21 03:03:00,42.8,39.3,29.70,East,90,0.0,2.0,87,0.00,,,0.00,WUHU216HW,2013-11-21 10:03:00,
2013-11-21 03:05:00,42.8,39.3,29.70,East,90,0.0,2.0,87,0.00,,,0.00,WUHU216HW,2013-11-21 10:05:00,
2013-11-21 03:15:00,42.8,39.3,29.70,ESE,113,0.0,1.0,87,0.00,,,0.00,WUHU216HW,2013-11-21 10:15:00,
2013-11-21 03:20:00,42.8,39.5,29.70,ESE,113,0.0,0.0,88,0.00,,,0.00,WUHU216HW,2013-11-21 10:20:00,
2013-11-21 03:25:00,42.8,39.3,29.71,South,180,0.0,0.0,87,0.00,,,0.00,WUHU216HW,2013-11-21 10:25:00,
2013-11-21 03:30:00,42.8,39.3,29.71,West,270,0.0,1.0,87,0.00,,,0.00,WUHU216HW,2013-11-21 10:30:00,
2013-11-21 03:37:00,42.8,39.3,29.71,West,270,0.0,1.0,87,0.00,,,0.00,WUHU216HW,2013-11-21 10:37:00,
2013-11-21 03:42:00,42.8,39.3,29.71,West,270,0.0,1.0,87,0.00,,,0.00,WUHU216HW,2013-11-21 10:42:00,
2013-11-21 03:47:00,43.0,39.7,29.71,WSW,248,0.0,0.0,88,0.00,,,0.00,WUHU216HW,2013-11-21 10:47:00,
2013-11-21 03:52:00,43.0,39.7,29.71,WSW,248,0.0,0.0,88,0.00,,,0.00,WUHU216HW,2013-11-21 10:52:00,
2013-11-21 03:57:00,43.0,39.4,29.72,SSW,203,0.0,0.0,87,0.00,,,0.00,WUHU216HW,2013-11-21 10:57:00,
2013-11-21 04:02:00,43.0,39.7,29.72,SSW,203,0.0,0.0,88,0.00,,,0.00,WUHU216HW,2013-11-21 11:02:00,
2013-11-21 04:07:00,43.0,39.4,29.72,WSW,248,0.0,0.0,87,0.00,,,0.00,WUHU216HW,2013-11-21 11:07:00,
2013-11-21 04:12:00,43.0,39.7,29.72,WSW,248,0.0,0.0,88,0.00,,,0.00,WUHU216HW,2013-11-21 11:12:00,
2013-11-21 04:17:00,43.0,39.7,29.72,ESE,113,0.0,0.0,88,0.00,,,0.00,WUHU216HW,2013-11-21 11:17:00,
2013-11-21 04:22:00,43.0,39.7,29.72,ESE,113,0.0,1.0,88,0.00,,,0.00,WUHU216HW,2013-11-21 11:22:00,
2013-11-21 04:27:00,43.0,39.7,29.72,ESE,113,0.0,1.0,88,0.00,,,0.00,WUHU216HW,2013-11-21 11:27:00,
2013-11-21 04:32:00,43.0,39.7,29.71,ESE,113,0.0,0.0,88,0.00,,,0.00,WUHU216HW,2013-11-21 11:32:00,
2013-11-21 04:37:00,43.0,39.7,29.72,East,90,1.0,1.0,88,0.00,,,0.00,WUHU216HW,2013-11-21 11:37:00,
2013-11-21 04:42:00,42.8,39.5,29.71,ENE,68,1.0,2.0,88,0.00,,,0.00,WUHU216HW,2013-11-21 11:42:00,
2013-11-21 04:47:00,42.8,39.5,29.71,NE,45,2.0,2.0,88,0.00,,,0.00,WUHU216HW,2013-11-21 11:47:00,
2013-11-21 04:52:00,42.8,39.9,29.71,SSE,158,1.0,2.0,89,0.00,,,0.00,WUHU216HW,2013-11-21 11:52:00,
2013-11-21 04:57:00,42.8,39.9,29.72,SSE,158,2.0,3.0,89,0.00,,,0.00,WUHU216HW,2013-11-21 11:57:00,
2013-11-21 05:02:00,42.8,39.9,29.72,SSE,158,1.0,3.0,89,0.00,,,0.00,WUHU216HW,2013-11-21 12:02:00,
2013-11-21 05:07:00,42.8,39.5,29.72,SW,225,0.0,2.0,88,0.00,,,0.00,WUHU216HW,2013-11-21 12:07:00,
2013-11-21 05:12:00,42.8,39.5,29.73,WSW,248,2.0,2.0,88,0.00,,,0.00,WUHU216HW,2013-11-21 12:12:00,
2013-11-21 05:17:00,42.8,39.5,29.73,WSW,248,1.0,2.0,88,0.00,,,0.00,WUHU216HW,2013-11-21 12:17:00,
2013-11-21 05:22:00,43.0,39.7,29.73,West,270,0.0,3.0,88,0.00,,,0.00,WUHU216HW,2013-11-21 12:22:00,
2013-11-21 05:27:00,43.0,39.7,29.74,WSW,248,2.0,3.0,88,0.00,,,0.00,WUHU216HW,2013-11-21 12:27:00,
2013-11-21 05:32:00,43.2,39.9,29.74,WNW,293,0.0,2.0,88,0.00,,,0.00,WUHU216HW,2013-11-21 12:32:00,
2013-11-21 05:37:00,43.2,39.9,29.74,West,270,0.0,2.0,88,0.00,,,0.00,WUHU216HW,2013-11-21 12:37:00,
2013-11-21 05:42:00,43.2,39.9,29.74,West,270,0.0,1.0,88,0.00,,,0.00,WUHU216HW,2013-11-21 12:42:00,
2013-11-21 05:47:00,43.2,39.9,29.74,West,270,0.0,0.0,88,0.00,,,0.00,WUHU216HW,2013-11-21 12:47:00,
2013-11-21 05:52:00,43.2,39.9,29.74,SSW,203,0.0,0.0,88,0.00,,,0.00,WUHU216HW,2013-11-21 12:52:00,
2013-11-21 05:57:00,43.0,39.7,29.74,SSW,203,0.0,0.0,88,0.00,,,0.00,WUHU216HW,2013-11-21 12:57:00,
2013-11-21 06:02:00,43.0,39.7,29.74,East,90,0.0,0.0,88,0.00,,,0.00,WUHU216HW,2013-11-21 13:02:00,
2013-11-21 06:07:00,43.0,39.7,29.74,NNE,23,0.0,0.0,88,0.00,,,0.00,WUHU216HW,2013-11-21 13:07:00,
2013-11-21 06:12:00,43.0,39.7,29.74,NNE,23,1.0,1.0,88,0.00,,,0.00,WUHU216HW,2013-11-21 13:12:00,
2013-11-21 06:17:00,43.0,40.1,29.74,NNE,23,0.0,2.0,89,0.00,,,0.00,WUHU216HW,2013-11-21 13:17:00,
2013-11-21 06:22:00,43.2,40.2,29.74,NNE,23,1.0,2.0,89,0.00,,,0.00,WUHU216HW,2013-11-21 13:22:00,
2013-11-21 06:27:00,43.2,40.2,29.74,NE,45,1.0,2.0,89,0.00,,,0.00,WUHU216HW,2013-11-21 13:27:00,
2013-11-21 06:32:00,43.2,40.2,29.74,ESE,113,0.0,2.0,89,0.00,,,0.00,WUHU216HW,2013-11-21 13:32:00,
2013-11-21 06:37:00,43.2,40.2,29.74,North,0,0.0,1.0,89,0.00,,,0.00,WUHU216HW,2013-11-21 13:37:00,
2013-11-21 06:42:00,43.2,40.2,29.74,NNW,338,0.0,0.0,89,0.00,,,0.00,WUHU216HW,2013-11-21 13:42:00,
2013-11-21 06:47:00,43.4,40.4,29.75,NNW,338,0.0,0.0,89,0.00,,,0.00,WUHU216HW,2013-11-21 13:47:00,
2013-11-21 06:52:00,43.4,40.4,29.75,WNW,293,0.0,0.0,89,0.00,,,0.00,WUHU216HW,2013-11-21 13:52:00,
2013-11-21 06:57:00,43.6,40.6,29.75,NW,315,0.0,0.0,89,0.00,,,0.00,WUHU216HW,2013-11-21 13:57:00,
2013-11-21 07:02:00,43.6,40.6,29.75,NW,315,0.0,0.0,89,0.00,,,0.00,WUHU216HW,2013-11-21 14:02:00,
2013-11-21 07:07:00,43.6,40.6,29.75,WNW,293,0.0,0.0,89,0.00,,,0.00,WUHU216HW,2013-11-21 14:07:00,
2013-11-21 07:12:00,43.6,40.6,29.75,SW,225,0.0,1.0,89,0.00,,,0.00,WUHU216HW,2013-11-21 14:12:00,
2013-11-21 07:17:00,43.6,40.6,29.75,SW,225,0.0,1.0,89,0.00,,,0.00,WUHU216HW,2013-11-21 14:17:00,
2013-11-21 07:22:00,43.6,40.6,29.75,South,180,0.0,0.0,89,0.00,,,0.00,WUHU216HW,2013-11-21 14:22:00,
2013-11-21 07:27:00,43.6,40.6,29.75,SSW,203,0.0,0.0,89,0.00,,,0.00,WUHU216HW,2013-11-21 14:27:00,
2013-11-21 07:32:00,43.7,40.8,29.75,West,270,0.0,1.0,89,0.00,,,0.00,WUHU216HW,2013-11-21 14:32:00,
2013-11-21 07:37:00,43.9,41.0,29.75,WNW,293,0.0,1.0,89,0.00,,,0.00,WUHU216HW,2013-11-21 14:37:00,
2013-11-21 07:42:00,43.9,40.6,29.76,WNW,293,0.0,1.0,88,0.00,,,0.00,WUHU216HW,2013-11-21 14:42:00,
2013-11-21 07:47:00,44.1,40.8,29.76,West,270,1.0,1.0,88,0.00,,,0.00,WUHU216HW,2013-11-21 14:47:00,
2013-11-21 07:52:00,44.3,41.0,29.76,WNW,293,0.0,2.0,88,0.00,,,0.00,WUHU216HW,2013-11-21 14:52:00,
2013-11-21 07:57:00,44.5,41.1,29.76,WSW,248,1.0,2.0,88,0.00,,,0.00,WUHU216HW,2013-11-21 14:57:00,
2013-11-21 08:02:00,44.6,41.7,29.77,WSW,248,0.0,1.0,89,0.00,,,0.00,WUHU216HW,2013-11-21 15:02:00,
2013-11-21 08:07:00,45.0,42.0,29.77,WSW,248,0.0,1.0,89,0.00,,,0.00,WUHU216HW,2013-11-21 15:07:00,
2013-11-21 08:12:00,45.4,42.0,29.77,NW,315,1.0,1.0,88,0.00,,,0.00,WUHU216HW,2013-11-21 15:12:00,
2013-11-21 08:17:00,45.5,42.2,29.77,NNW,338,1.0,2.0,88,0.00,,,0.00,WUHU216HW,2013-11-21 15:17:00,
2013-11-21 08:22:00,46.1,42.8,29.77,NNW,338,0.0,3.0,88,0.00,,,0.00,WUHU216HW,2013-11-21 15:22:00,
2013-11-21 08:27:00,46.1,42.5,29.77,NNW,338,1.0,3.0,87,0.00,,,0.00,WUHU216HW,2013-11-21 15:27:00,
2013-11-21 08:32:00,46.4,42.9,29.77,NW,315,1.0,3.0,87,0.00,,,0.00,WUHU216HW,2013-11-21 15:32:00,
2013-11-21 08:37:00,46.6,42.7,29.78,NW,315,1.0,2.0,86,0.00,,,0.00,WUHU216HW,2013-11-21 15:37:00,
2013-11-21 08:42:00,46.6,42.4,29.79,West,270,2.0,3.0,85,0.00,,,0.00,WUHU216HW,2013-11-21 15:42:00,
2013-11-21 08:47:00,46.6,42.4,29.79,NW,315,2.0,3.0,85,0.00,,,0.00,WUHU216HW,2013-11-21 15:47:00,
2013-11-21 08:52:00,46.6,42.4,29.79,West,270,2.0,3.0,85,0.00,,,0.00,WUHU216HW,2013-11-21 15:52:00,
2013-11-21 08:57:00,46.6,42.0,29.79,NNE,23,0.0,3.0,84,0.00,,,0.00,WUHU216HW,2013-11-21 15:57:00,
2013-11-21 09:02:00,46.4,42.0,29.79,North,0,0.0,2.0,84,0.00,,,0.00,WUHU216HW,2013-11-21 16:02:00,
2013-11-21 09:07:00,46.4,42.0,29.79,West,270,0.0,1.0,84,0.00,,,0.00,WUHU216HW,2013-11-21 16:07:00,
2013-11-21 09:12:00,46.4,42.0,29.79,WSW,248,0.0,1.0,84,0.00,,,0.00,WUHU216HW,2013-11-21 16:12:00,
2013-11-21 09:17:00,46.8,42.2,29.79,SW,225,0.0,0.0,84,0.00,,,0.00,WUHU216HW,2013-11-21 16:17:00,
2013-11-21 09:22:00,47.2,42.6,29.79,SE,135,0.0,0.0,84,0.00,,,0.00,WUHU216HW,2013-11-21 16:22:00,
2013-11-21 09:27:00,47.3,42.5,29.79,South,180,1.0,1.0,83,0.00,,,0.00,WUHU216HW,2013-11-21 16:27:00,
2013-11-21 09:32:00,47.7,42.8,29.79,SSE,158,0.0,1.0,83,0.00,,,0.00,WUHU216HW,2013-11-21 16:32:00,
2013-11-21 09:37:00,47.9,42.9,29.79,SE,135,1.0,1.0,83,0.00,,,0.00,WUHU216HW,2013-11-21 16:37:00,
2013-11-21 09:42:00,47.9,42.9,29.79,ESE,113,0.0,1.0,83,0.00,,,0.00,WUHU216HW,2013-11-21 16:42:00,
2013-11-21 09:47:00,47.9,42.9,29.79,SE,135,0.0,1.0,83,0.00,,,0.00,WUHU216HW,2013-11-21 16:47:00,
2013-11-21 09:52:00,48.2,43.3,29.79,SE,135,0.0,2.0,83,0.00,,,0.00,WUHU216HW,2013-11-21 16:52:00,
2013-11-21 09:57:00,48.6,43.9,29.79,SSE,158,0.0,2.0,84,0.00,,,0.00,WUHU216HW,2013-11-21 16:57:00,
2013-11-21 10:02:00,49.0,44.3,29.79,ESE,113,1.0,2.0,84,0.00,,,0.00,WUHU216HW,2013-11-21 17:02:00,
2013-11-21 10:07:00,49.3,44.3,29.79,ESE,113,2.0,2.0,83,0.00,,,0.00,WUHU216HW,2013-11-21 17:07:00,
2013-11-21 10:12:00,49.5,44.5,29.79,SE,135,0.0,3.0,83,0.00,,,0.00,WUHU216HW,2013-11-21 17:12:00,
2013-11-21 10:17:00,50.0,45.0,29.79,South,180,1.0,3.0,83,0.00,,,0.00,WUHU216HW,2013-11-21 17:17:00,
2013-11-21 10:22:00,50.2,44.9,29.79,SSE,158,0.0,2.0,82,0.00,,,0.00,WUHU216HW,2013-11-21 17:22:00,
2013-11-21 10:27:00,50.4,44.7,29.79,ESE,113,1.0,3.0,81,0.00,,,0.00,WUHU216HW,2013-11-21 17:27:00,
2013-11-21 10:32:00,50.8,45.1,29.79,ESE,113,2.0,4.0,81,0.00,,,0.00,WUHU216HW,2013-11-21 17:32:00,
2013-11-21 10:37:00,51.3,45.4,29.79,SSE,158,0.0,4.0,80,0.00,,,0.00,WUHU216HW,2013-11-21 17:37:00,
2013-11-21 10:42:00,52.2,45.9,29.79,SSE,158,1.0,3.0,79,0.00,,,0.00,WUHU216HW,2013-11-21 17:42:00,
2013-11-21 10:47:00,52.9,46.3,29.79,SSE,158,3.0,4.0,78,0.00,,,0.00,WUHU216HW,2013-11-21 17:47:00,
2013-11-21 10:52:00,53.1,46.1,29.78,SE,135,2.0,4.0,77,0.00,,,0.00,WUHU216HW,2013-11-21 17:52:00,
2013-11-21 10:57:00,53.6,46.3,29.78,SSW,203,3.0,5.0,76,0.00,,,0.00,WUHU216HW,2013-11-21 17:57:00,
2013-11-21 11:02:00,54.7,47.3,29.78,ESE,113,0.0,5.0,76,0.00,,,0.00,WUHU216HW,2013-11-21 18:02:00,
2013-11-21 11:07:00,55.1,46.9,29.78,South,180,2.0,5.0,74,0.00,,,0.00,WUHU216HW,2013-11-21 18:07:00,
2013-11-21 11:12:00,55.1,46.6,29.78,SSE,158,5.0,5.0,73,0.00,,,0.00,WUHU216HW,2013-11-21 18:12:00,
2013-11-21 11:17:00,54.7,46.3,29.78,ESE,113,2.0,5.0,73,0.00,,,0.00,WUHU216HW,2013-11-21 18:17:00,
2013-11-21 11:22:00,54.5,46.1,29.78,South,180,2.0,5.0,73,0.00,,,0.00,WUHU216HW,2013-11-21 18:22:00,
2013-11-21 11:27:00,54.5,46.1,29.78,SSE,158,3.0,3.0,73,0.00,,,0.00,WUHU216HW,2013-11-21 18:27:00,
2013-11-21 11:32:00,54.7,45.9,29.78,South,180,1.0,5.0,72,0.00,,,0.00,WUHU216HW,2013-11-21 18:32:00,
2013-11-21 11:37:00,54.7,46.3,29.78,SSW,203,3.0,5.0,73,0.00,,,0.00,WUHU216HW,2013-11-21 18:37:00,
2013-11-21 11:42:00,54.9,46.5,29.78,SSW,203,4.0,4.0,73,0.00,,,0.00,WUHU216HW,2013-11-21 18:42:00,
2013-11-21 11:47:00,55.3,46.5,29.77,South,180,1.0,4.0,72,0.00,,,0.00,WUHU216HW,2013-11-21 18:47:00,
2013-11-21 11:52:00,55.6,46.7,29.77,ESE,113,0.0,4.0,72,0.00,,,0.00,WUHU216HW,2013-11-21 18:52:00,
2013-11-21 11:57:00,56.0,46.7,29.77,SW,225,4.0,4.0,71,0.00,,,0.00,WUHU216HW,2013-11-21 18:57:00,
2013-11-21 12:02:00,56.3,46.7,29.77,WSW,248,2.0,4.0,70,0.00,,,0.00,WUHU216HW,2013-11-21 19:02:00,
2013-11-21 12:07:00,56.5,46.9,29.76,SSW,203,2.0,4.0,70,0.00,,,0.00,WUHU216HW,2013-11-21 19:07:00,
2013-11-21 12:12:00,56.5,46.4,29.76,SSE,158,3.0,3.0,69,0.00,,,0.00,WUHU216HW,2013-11-21 19:12:00,
2013-11-21 12:17:00,56.3,46.3,29.76,SSE,158,2.0,4.0,69,0.00,,,0.00,WUHU216HW,2013-11-21 19:17:00,
2013-11-21 12:22:00,56.2,45.7,29.76,SW,225,2.0,4.0,68,0.00,,,0.00,WUHU216HW,2013-11-21 19:22:00,
2013-11-21 12:27:00,56.2,46.2,29.76,SSW,203,0.0,3.0,69,0.00,,,0.00,WUHU216HW,2013-11-21 19:27:00,
2013-11-21 12:32:00,56.2,45.7,29.76,WSW,248,1.0,3.0,68,0.00,,,0.00,WUHU216HW,2013-11-21 19:32:00,
2013-11-21 12:37:00,56.2,45.4,29.75,East,90,1.0,2.0,67,0.00,,,0.00,WUHU216HW,2013-11-21 19:37:00,
2013-11-21 12:42:00,56.0,45.2,29.76,SE,135,1.0,3.0,67,0.00,,,0.00,WUHU216HW,2013-11-21 19:42:00,
2013-11-21 12:47:00,56.2,45.4,29.76,SSW,203,0.0,3.0,67,0.00,,,0.00,WUHU216HW,2013-11-21 19:47:00,
2013-11-21 12:52:00,56.7,45.5,29.76,SSE,158,1.0,3.0,66,0.00,,,0.00,WUHU216HW,2013-11-21 19:52:00,
2013-11-21 12:57:00,57.2,46.4,29.76,SSW,203,0.0,3.0,67,0.00,,,0.00,WUHU216HW,2013-11-21 19:57:00,
2013-11-21 13:02:00,58.0,46.6,29.75,WSW,248,0.0,3.0,66,0.00,,,0.00,WUHU216HW,2013-11-21 20:02:00,
2013-11-21 13:07:00,58.3,46.2,29.75,South,180,1.0,3.0,64,0.00,,,0.00,WUHU216HW,2013-11-21 20:07:00,
2013-11-21 13:12:00,58.0,44.7,29.75,SSE,158,1.0,4.0,61,0.00,,,0.00,WUHU216HW,2013-11-21 20:12:00,
2013-11-21 13:17:00,57.8,45.3,29.75,WSW,248,0.0,4.0,63,0.00,,,0.00,WUHU216HW,2013-11-21 20:17:00,
2013-11-21 13:22:00,58.1,46.0,29.75,SE,135,1.0,2.0,64,0.00,,,0.00,WUHU216HW,2013-11-21 20:22:00,
2013-11-21 13:27:00,58.7,46.1,29.75,WSW,248,1.0,3.0,63,0.00,,,0.00,WUHU216HW,2013-11-21 20:27:00,
2013-11-21 13:32:00,59.2,46.2,29.75,ESE,113,4.0,4.0,62,0.00,,,0.00,WUHU216HW,2013-11-21 20:32:00,
2013-11-21 13:37:00,58.3,44.1,29.75,SW,225,0.0,4.0,59,0.00,,,0.00,WUHU216HW,2013-11-21 20:37:00,
2013-11-21 13:42:00,58.0,43.7,29.75,ENE,68,0.0,4.0,59,0.00,,,0.00,WUHU216HW,2013-11-21 20:42:00,
2013-11-21 13:47:00,57.4,43.3,29.75,NNW,338,0.0,3.0,59,0.00,,,0.00,WUHU216HW,2013-11-21 20:47:00,
2013-11-21 13:52:00,58.0,44.7,29.75,WSW,248,1.0,3.0,61,0.00,,,0.00,WUHU216HW,2013-11-21 20:52:00,
2013-11-21 13:57:00,58.7,44.8,29.75,WSW,248,3.0,3.0,60,0.00,,,0.00,WUHU216HW,2013-11-21 20:57:00,
2013-11-21 14:02:00,59.2,45.8,29.75,NW,315,0.0,4.0,61,0.00,,,0.00,WUHU216HW,2013-11-21 21:02:00,
2013-11-21 14:07:00,59.4,45.5,29.75,West,270,2.0,4.0,60,0.00,,,0.00,WUHU216HW,2013-11-21 21:07:00,
2013-11-21 14:12:00,59.4,45.5,29.75,WNW,293,2.0,4.0,60,0.00,,,0.00,WUHU216HW,2013-11-21 21:12:00,
2013-11-21 14:17:00,59.2,45.8,29.74,NW,315,4.0,6.0,61,0.00,,,0.00,WUHU216HW,2013-11-21 21:17:00,
2013-11-21 14:22:00,58.7,44.4,29.75,NW,315,3.0,6.0,59,0.00,,,0.00,WUHU216HW,2013-11-21 21:22:00,
2013-11-21 14:27:00,58.3,44.9,29.75,North,0,3.0,7.0,61,0.00,,,0.00,WUHU216HW,2013-11-21 21:27:00,
2013-11-21 14:32:00,57.8,44.8,29.75,NW,315,5.0,7.0,62,0.00,,,0.00,WUHU216HW,2013-11-21 21:32:00,
2013-11-21 14:37:00,57.2,45.2,29.75,North,0,2.0,8.0,64,0.00,,,0.00,WUHU216HW,2013-11-21 21:37:00,
2013-11-21 14:42:00,56.3,44.3,29.75,NNE,23,2.0,8.0,64,0.00,,,0.00,WUHU216HW,2013-11-21 21:42:00,
2013-11-21 14:47:00,56.2,44.6,29.76,NW,315,5.0,7.0,65,0.00,,,0.00,WUHU216HW,2013-11-21 21:47:00,
2013-11-21 14:52:00,56.0,44.4,29.76,NNW,338,3.0,7.0,65,0.00,,,0.00,WUHU216HW,2013-11-21 21:52:00,
2013-11-21 14:57:00,55.4,43.8,29.76,NW,315,4.0,7.0,65,0.00,,,0.00,WUHU216HW,2013-11-21 21:57:00,
2013-11-21 15:02:00,55.3,44.1,29.76,NNW,338,3.0,5.0,66,0.00,,,0.00,WUHU216HW,2013-11-21 22:02:00,
2013-11-21 15:07:00,54.9,43.8,29.76,NW,315,3.0,7.0,66,0.00,,,0.00,WUHU216HW,2013-11-21 22:07:00,
2013-11-21 15:12:00,54.4,43.7,29.76,NE,45,3.0,7.0,67,0.00,,,0.00,WUHU216HW,2013-11-21 22:12:00,
2013-11-21 15:17:00,54.2,43.8,29.76,NNW,338,2.0,5.0,68,0.00,,,0.00,WUHU216HW,2013-11-21 22:17:00,
2013-11-21 15:22:00,53.6,43.3,29.76,NW,315,1.0,5.0,68,0.00,,,0.00,WUHU216HW,2013-11-21 22:22:00,
2013-11-21 15:26:00,53.3,43.4,29.76,North,0,5.0,6.0,69,0.00,,,0.00,WUHU216HW,2013-11-21 22:26:00,
2013-11-21 15:32:00,53.1,43.2,29.77,NNW,338,3.0,6.0,69,0.00,,,0.00,WUHU216HW,2013-11-21 22:32:00,
2013-11-21 15:36:00,53.3,43.4,29.77,NNW,338,4.0,5.0,69,0.00,,,0.00,WUHU216HW,2013-11-21 22:36:00,
2013-11-21 15:42:00,53.3,43.4,29.76,NNW,338,3.0,5.0,69,0.00,,,0.00,WUHU216HW,2013-11-21 22:42:00,
2013-11-21 15:46:00,52.9,43.8,29.77,North,0,5.0,8.0,71,0.00,,,0.00,WUHU216HW,2013-11-21 22:46:00,
2013-11-21 15:51:00,52.7,44.0,29.77,NNE,23,4.0,8.0,72,0.00,,,0.00,WUHU216HW,2013-11-21 22:51:00,
2013-11-21 15:56:00,52.6,43.8,29.77,NNE,23,4.0,6.0,72,0.00,,,0.00,WUHU216HW,2013-11-21 22:56:00,
2013-11-21 16:01:00,52.6,43.8,29.77,NNE,23,2.0,5.0,72,0.00,,,0.00,WUHU216HW,2013-11-21 23:01:00,
2013-11-21 16:06:00,52.6,43.8,29.77,NNE,23,6.0,6.0,72,0.00,,,0.00,WUHU216HW,2013-11-21 23:06:00,
2013-11-21 16:11:00,52.2,43.5,29.77,NNE,23,2.0,7.0,72,0.00,,,0.00,WUHU216HW,2013-11-21 23:11:00,
2013-11-21 16:16:00,52.2,43.8,29.78,North,0,1.0,7.0,73,0.00,,,0.00,WUHU216HW,2013-11-21 23:16:00,
2013-11-21 16:21:00,52.2,43.8,29.78,NNE,23,3.0,5.0,73,0.00,,,0.00,WUHU216HW,2013-11-21 23:21:00,
2013-11-21 16:26:00,52.2,43.8,29.78,NE,45,5.0,5.0,73,0.00,,,0.00,WUHU216HW,2013-11-21 23:26:00,
2013-11-21 16:31:00,52.0,44.0,29.77,NNE,23,3.0,5.0,74,0.00,,,0.00,WUHU216HW,2013-11-21 23:31:00,
2013-11-21 16:36:00,52.0,43.7,29.77,NNE,23,3.0,5.0,73,0.00,,,0.00,WUHU216HW,2013-11-21 23:36:00,
2013-11-21 16:41:00,51.8,43.8,29.77,North,0,0.0,5.0,74,0.00,,,0.00,WUHU216HW,2013-11-21 23:41:00,
2013-11-21 16:46:00,52.0,44.0,29.77,NNW,338,1.0,5.0,74,0.00,,,0.00,WUHU216HW,2013-11-21 23:46:00,
2013-11-21 16:51:00,51.8,43.8,29.78,NNE,23,1.0,3.0,74,0.00,,,0.00,WUHU216HW,2013-11-21 23:51:00,
2013-11-21 16:56:00,51.7,44.0,29.78,NNW,338,1.0,3.0,75,0.00,,,0.00,WUHU216HW,2013-11-21 23:56:00,
2013-11-21 17:01:00,51.7,44.0,29.78,NE,45,1.0,3.0,75,0.00,,,0.00,WUHU216HW,2013-11-22 00:01:00,
2013-11-21 17:06:00,51.7,44.0,29.78,North,0,0.0,2.0,75,0.00,,,0.00,WUHU216HW,2013-11-22 00:06:00,
2013-11-21 17:11:00,51.7,44.4,29.78,North,0,1.0,2.0,76,0.00,,,0.00,WUHU216HW,2013-11-22 00:11:00,
2013-11-21 17:16:00,51.5,44.2,29.77,NW,315,1.0,3.0,76,0.00,,,0.00,WUHU216HW,2013-11-22 00:16:00,
2013-11-21 17:21:00,51.5,44.2,29.78,North,0,0.0,3.0,76,0.00,,,0.00,WUHU216HW,2013-11-22 00:21:00,
2013-11-21 17:26:00,51.5,43.8,29.78,WNW,293,0.0,2.0,75,0.00,,,0.00,WUHU216HW,2013-11-22 00:26:00,
2013-11-21 17:31:00,51.5,43.8,29.79,WNW,293,2.0,3.0,75,0.00,,,0.00,WUHU216HW,2013-11-22 00:31:00,
2013-11-21 17:36:00,51.3,44.0,29.79,NNW,338,3.0,3.0,76,0.00,,,0.00,WUHU216HW,2013-11-22 00:36:00,
2013-11-21 17:41:00,51.1,43.5,29.79,NW,315,2.0,3.0,75,0.00,,,0.00,WUHU216HW,2013-11-22 00:41:00,
2013-11-21 17:46:00,51.1,43.8,29.79,WNW,293,1.0,4.0,76,0.00,,,0.00,WUHU216HW,2013-11-22 00:46:00,
2013-11-21 17:51:00,51.1,43.8,29.79,NW,315,3.0,5.0,76,0.00,,,0.00,WUHU216HW,2013-11-22 00:51:00,
2013-11-21 17:56:00,50.9,43.7,29.79,NW,315,2.0,5.0,76,0.00,,,0.00,WUHU216HW,2013-11-22 00:56:00,
2013-11-21 18:01:00,50.8,43.5,29.79,NNE,23,2.0,3.0,76,0.00,,,0.00,WUHU216HW,2013-11-22 01:01:00,
2013-11-21 18:06:00,50.6,43.3,29.79,North,0,2.0,4.0,76,0.00,,,0.00,WUHU216HW,2013-11-22 01:06:00,
2013-11-21 18:11:00,50.4,43.1,29.79,NNE,23,3.0,4.0,76,0.00,,,0.00,WUHU216HW,2013-11-22 01:11:00,
2013-11-21 18:16:00,50.4,43.1,29.79,NNW,338,1.0,3.0,76,0.00,,,0.00,WUHU216HW,2013-11-22 01:16:00,
2013-11-21 18:21:00,50.2,42.9,29.79,North,0,2.0,3.0,76,0.00,,,0.00,WUHU216HW,2013-11-22 01:21:00,
2013-11-21 18:26:00,50.2,43.3,29.79,NNW,338,3.0,4.0,77,0.00,,,0.00,WUHU216HW,2013-11-22 01:26:00,
2013-11-21 18:31:00,50.2,43.3,29.79,NNW,338,2.0,6.0,77,0.00,,,0.00,WUHU216HW,2013-11-22 01:31:00,
2013-11-21 18:36:00,50.2,43.6,29.79,NW,315,1.0,6.0,78,0.00,,,0.00,WUHU216HW,2013-11-22 01:36:00,
2013-11-21 18:41:00,50.0,43.4,29.79,NNE,23,4.0,6.0,78,0.00,,,0.00,WUHU216HW,2013-11-22 01:41:00,
2013-11-21 18:46:00,50.0,43.4,29.79,North,0,4.0,4.0,78,0.00,,,0.00,WUHU216HW,2013-11-22 01:46:00,
2013-11-21 18:51:00,50.0,43.4,29.79,NW,315,3.0,6.0,78,0.00,,,0.00,WUHU216HW,2013-11-22 01:51:00,
2013-11-21 18:56:00,50.0,43.4,29.79,North,0,2.0,6.0,78,0.00,,,0.00,WUHU216HW,2013-11-22 01:56:00,
2013-11-21 19:01:00,50.0,43.4,29.80,NNW,338,4.0,6.0,78,0.00,,,0.00,WUHU216HW,2013-11-22 02:01:00,
2013-11-21 19:06:00,49.9,43.2,29.80,NNW,338,4.0,6.0,78,0.00,,,0.00,WUHU216HW,2013-11-22 02:06:00,
2013-11-21 19:08:00,49.9,43.2,29.80,NW,315,7.0,7.0,78,0.00,,,0.00,WUHU216HW,2013-11-22 02:08:00,
2013-11-21 19:09:00,49.9,43.2,29.80,NW,315,6.0,7.0,78,0.00,,,0.00,WUHU216HW,2013-11-22 02:09:00,
2013-11-21 19:14:00,49.7,43.4,29.80,North,0,3.0,7.0,79,0.00,,,0.00,WUHU216HW,2013-11-22 02:14:00,
2013-11-21 19:19:00,49.7,43.4,29.80,NNW,338,4.0,7.0,79,0.00,,,0.00,WUHU216HW,2013-11-22 02:19:00,
2013-11-21 19:24:00,49.5,43.2,29.80,NW,315,1.0,6.0,79,0.00,,,0.00,WUHU216HW,2013-11-22 02:24:00,
2013-11-21 19:29:00,49.3,43.4,29.80,North,0,1.0,5.0,80,0.00,,,0.00,WUHU216HW,2013-11-22 02:29:00,
2013-11-21 19:34:00,49.3,43.4,29.80,NNE,23,2.0,4.0,80,0.00,,,0.00,WUHU216HW,2013-11-22 02:34:00,
2013-11-21 19:39:00,49.1,43.2,29.79,NNE,23,7.0,7.0,80,0.00,,,0.00,WUHU216HW,2013-11-22 02:39:00,
2013-11-21 19:44:00,49.0,43.4,29.79,North,0,3.0,7.0,81,0.00,,,0.00,WUHU216HW,2013-11-22 02:44:00,
2013-11-21 19:49:00,49.0,43.7,29.79,North,0,5.0,7.0,82,0.00,,,0.00,WUHU216HW,2013-11-22 02:49:00,
2013-11-21 19:54:00,49.0,43.7,29.79,NNW,338,7.0,7.0,82,0.00,,,0.00,WUHU216HW,2013-11-22 02:54:00,
2013-11-21 19:59:00,48.8,43.5,29.79,North,0,1.0,7.0,82,0.00,,,0.00,WUHU216HW,2013-11-22 02:59:00,
2013-11-21 20:04:00,48.6,43.3,29.79,NNW,338,1.0,7.0,82,0.00,,,0.00,WUHU216HW,2013-11-22 03:04:00,
2013-11-21 20:09:00,48.6,43.3,29.79,North,0,1.0,6.0,82,0.00,,,0.00,WUHU216HW,2013-11-22 03:09:00,
2013-11-21 20:14:00,48.6,43.3,29.79,NNW,338,1.0,6.0,82,0.00,,,0.00,WUHU216HW,2013-11-22 03:14:00,
2013-11-21 20:19:00,48.6,43.7,29.80,NW,315,1.0,5.0,83,0.01,,,0.01,WUHU216HW,2013-11-22 03:19:00,
2013-11-21 20:24:00,48.4,43.7,29.80,NNW,338,3.0,5.0,84,0.01,,,0.01,WUHU216HW,2013-11-22 03:24:00,
2013-11-21 20:29:00,48.2,43.3,29.81,North,0,3.0,7.0,83,0.01,,,0.01,WUHU216HW,2013-11-22 03:29:00,
2013-11-21 20:34:00,48.2,43.3,29.81,NE,45,3.0,7.0,83,0.01,,,0.01,WUHU216HW,2013-11-22 03:34:00,
2013-11-21 20:39:00,48.1,43.5,29.82,East,90,5.0,5.0,84,0.01,,,0.01,WUHU216HW,2013-11-22 03:39:00,
2013-11-21 20:44:00,48.1,43.1,29.82,North,0,1.0,5.0,83,0.02,,,0.02,WUHU216HW,2013-11-22 03:44:00,
2013-11-21 20:49:00,47.9,43.3,29.82,NNE,23,2.0,9.0,84,0.02,,,0.02,WUHU216HW,2013-11-22 03:49:00,
2013-11-21 20:54:00,47.9,42.9,29.82,North,0,1.0,9.0,83,0.02,,,0.02,WUHU216HW,2013-11-22 03:54:00,
2013-11-21 20:59:00,47.9,43.3,29.82,SW,225,0.0,2.0,84,0.03,,,0.03,WUHU216HW,2013-11-22 03:59:00,
2013-11-21 21:04:00,47.9,43.3,29.82,NNE,23,1.0,2.0,84,0.04,,,0.04,WUHU216HW,2013-11-22 04:04:00,
2013-11-21 21:09:00,47.9,43.3,29.82,ENE,68,1.0,2.0,84,0.04,,,0.04,WUHU216HW,2013-11-22 04:09:00,
2013-11-21 21:14:00,47.9,43.3,29.82,North,0,0.0,2.0,84,0.05,,,0.05,WUHU216HW,2013-11-22 04:14:00,
2013-11-21 21:19:00,47.9,43.3,29.82,North,0,0.0,2.0,84,0.05,,,0.06,WUHU216HW,2013-11-22 04:19:00,
2013-11-21 21:24:00,47.9,43.3,29.82,WNW,293,1.0,1.0,84,0.05,,,0.06,WUHU216HW,2013-11-22 04:24:00,
2013-11-21 21:29:00,48.1,43.5,29.82,WSW,248,1.0,1.0,84,0.05,,,0.06,WUHU216HW,2013-11-22 04:29:00,
2013-11-21 21:34:00,48.1,43.5,29.82,West,270,1.0,1.0,84,0.06,,,0.07,WUHU216HW,2013-11-22 04:34:00,
2013-11-21 21:39:00,47.9,43.6,29.82,SSE,158,0.0,2.0,85,0.06,,,0.07,WUHU216HW,2013-11-22 04:39:00,
2013-11-21 21:44:00,48.1,43.1,29.82,East,90,1.0,5.0,83,0.06,,,0.08,WUHU216HW,2013-11-22 04:44:00,
2013-11-21 21:49:00,48.1,42.8,29.81,ESE,113,1.0,5.0,82,0.07,,,0.09,WUHU216HW,2013-11-22 04:49:00,
2013-11-21 21:54:00,48.1,42.8,29.81,ENE,68,2.0,4.0,82,0.07,,,0.09,WUHU216HW,2013-11-22 04:54:00,
2013-11-21 21:59:00,47.9,42.7,29.82,ESE,113,1.0,4.0,82,0.07,,,0.10,WUHU216HW,2013-11-22 04:59:00,
2013-11-21 22:01:00,47.9,42.9,29.82,SE,135,1.0,4.0,83,0.06,,,0.10,WUHU216HW,2013-11-22 05:01:00,
2013-11-21 22:02:00,47.9,42.7,29.82,SSW,203,0.0,4.0,82,0.06,,,0.10,WUHU216HW,2013-11-22 05:02:00,
2013-11-21 22:07:00,47.9,42.7,29.82,SSW,203,1.0,3.0,82,0.07,,,0.11,WUHU216HW,2013-11-22 05:07:00,
2013-11-21 22:12:00,47.9,42.7,29.81,ESE,113,1.0,4.0,82,0.06,,,0.11,WUHU216HW,2013-11-22 05:12:00,
2013-11-21 22:17:00,47.7,42.1,29.81,ENE,68,2.0,4.0,81,0.07,,,0.12,WUHU216HW,2013-11-22 05:17:00,
2013-11-21 22:22:00,47.5,41.9,29.82,ESE,113,3.0,5.0,81,0.06,,,0.12,WUHU216HW,2013-11-22 05:22:00,
2013-11-21 22:27:00,47.5,42.3,29.82,SE,135,1.0,5.0,82,0.07,,,0.13,WUHU216HW,2013-11-22 05:27:00,
2013-11-21 22:32:00,47.3,41.8,29.82,SSE,158,2.0,4.0,81,0.06,,,0.13,WUHU216HW,2013-11-22 05:32:00,
2013-11-21 22:37:00,47.2,41.7,29.81,SE,135,3.0,5.0,81,0.07,,,0.14,WUHU216HW,2013-11-22 05:37:00,
2013-11-21 22:42:00,47.0,41.1,29.81,SE,135,4.0,7.0,80,0.07,,,0.14,WUHU216HW,2013-11-22 05:42:00,
2013-11-21 22:47:00,46.8,41.1,29.82,ENE,68,4.0,7.0,80,0.06,,,0.15,WUHU216HW,2013-11-22 05:47:00,
2013-11-21 22:52:00,46.6,40.9,29.82,East,90,2.0,7.0,80,0.06,,,0.15,WUHU216HW,2013-11-22 05:52:00,
2013-11-21 22:57:00,46.4,40.7,29.83,East,90,2.0,6.0,80,0.06,,,0.16,WUHU216HW,2013-11-22 05:57:00,
2013-11-21 23:02:00,46.1,40.6,29.83,ENE,68,3.0,8.0,81,0.07,,,0.17,WUHU216HW,2013-11-22 06:02:00,
2013-11-21 23:07:00,45.9,40.4,29.83,NE,45,2.0,8.0,81,0.07,,,0.18,WUHU216HW,2013-11-22 06:07:00,
2013-11-21 23:11:00,45.9,40.8,29.83,ENE,68,1.0,5.0,82,0.08,,,0.19,WUHU216HW,2013-11-22 06:11:00,
2013-11-21 23:17:00,45.9,41.0,29.83,SE,135,0.0,5.0,83,0.08,,,0.20,WUHU216HW,2013-11-22 06:17:00,
2013-11-21 23:21:00,45.7,41.2,29.83,East,90,3.0,4.0,84,0.10,,,0.22,WUHU216HW,2013-11-22 06:21:00,
2013-11-21 23:26:00,45.7,41.2,29.84,ESE,113,1.0,4.0,84,0.10,,,0.23,WUHU216HW,2013-11-22 06:26:00,
2013-11-21 23:31:00,45.5,40.7,29.83,ESE,113,5.0,7.0,83,0.12,,,0.25,WUHU216HW,2013-11-22 06:31:00,
2013-11-21 23:36:00,45.2,40.3,29.83,ESE,113,5.0,8.0,83,0.12,,,0.26,WUHU216HW,2013-11-22 06:36:00,
2013-11-21 23:41:00,45.2,40.3,29.83,ENE,68,0.0,8.0,83,0.12,,,0.26,WUHU216HW,2013-11-22 06:41:00,
2013-11-21 23:46:00,45.2,40.7,29.84,ESE,113,5.0,8.0,84,0.12,,,0.27,WUHU216HW,2013-11-22 06:46:00,
2013-11-21 23:51:00,45.2,40.1,29.83,SE,135,5.0,7.0,82,0.14,,,0.29,WUHU216HW,2013-11-22 06:51:00,
2013-11-21 23:56:00,45.0,39.5,29.83,East,90,3.0,7.0,81,0.13,,,0.29,WUHU216HW,2013-11-22 06:56:00,